sensor_id;sensor_type;location;lat;lon;timestamp;P1;durP1;ratioP1;P2;durP2;ratioP2
15536;SDS011;7870;52.448;13.270;2023-04-06T00:00:08;8.05;;;5.90;;
15536;SDS011;7870;52.448;13.270;2023-04-06T00:02:35;9.95;;;6.22;;
15536;SDS011;7870;52.448;13.270;2023-04-06T00:05:02;10.02;;;6.10;;
15536;SDS011;7870;52.448;13.270;2023-04-06T00:07:29;9.70;;;6.10;;
15536;SDS011;7870;52.448;13.270;2023-04-06T00:09:56;12.05;;;6.63;;
15536;SDS011;7870;52.448;13.270;2023-04-06T00:12:22;9.60;;;6.45;;
15536;SDS011;7870;52.448;13.270;2023-04-06T00:14:49;8.40;;;6.20;;
15536;SDS011;7870;52.448;13.270;2023-04-06T00:17:16;8.63;;;6.25;;
15536;SDS011;7870;52.448;13.270;2023-04-06T00:19:42;7.93;;;6.28;;
15536;SDS011;7870;52.448;13.270;2023-04-06T00:22:09;8.98;;;6.15;;
15536;SDS011;7870;52.448;13.270;2023-04-06T00:24:35;8.70;;;5.95;;
15536;SDS011;7870;52.448;13.270;2023-04-06T00:27:02;7.38;;;5.65;;
15536;SDS011;7870;52.448;13.270;2023-04-06T00:29:29;9.77;;;5.88;;
15536;SDS011;7870;52.448;13.270;2023-04-06T00:31:55;8.93;;;6.75;;
15536;SDS011;7870;52.448;13.270;2023-04-06T00:34:22;7.93;;;6.13;;
15536;SDS011;7870;52.448;13.270;2023-04-06T00:36:48;8.18;;;6.35;;
15536;SDS011;7870;52.448;13.270;2023-04-06T00:39:15;9.15;;;6.43;;
15536;SDS011;7870;52.448;13.270;2023-04-06T00:41:46;10.65;;;6.45;;
15536;SDS011;7870;52.448;13.270;2023-04-06T00:44:16;8.60;;;6.22;;
15536;SDS011;7870;52.448;13.270;2023-04-06T00:46:43;8.05;;;5.95;;
15536;SDS011;7870;52.448;13.270;2023-04-06T00:49:10;8.32;;;6.20;;
15536;SDS011;7870;52.448;13.270;2023-04-06T00:51:37;9.82;;;5.97;;
15536;SDS011;7870;52.448;13.270;2023-04-06T00:54:03;8.90;;;7.05;;
15536;SDS011;7870;52.448;13.270;2023-04-06T00:56:32;8.55;;;6.47;;
15536;SDS011;7870;52.448;13.270;2023-04-06T00:58:58;9.68;;;6.97;;
15536;SDS011;7870;52.448;13.270;2023-04-06T01:01:25;9.68;;;6.25;;
15536;SDS011;7870;52.448;13.270;2023-04-06T01:06:23;10.60;;;6.53;;
15536;SDS011;7870;52.448;13.270;2023-04-06T01:08:56;12.20;;;7.18;;
15536;SDS011;7870;52.448;13.270;2023-04-06T01:11:25;11.30;;;6.18;;
15536;SDS011;7870;52.448;13.270;2023-04-06T01:13:52;9.73;;;6.80;;
15536;SDS011;7870;52.448;13.270;2023-04-06T01:16:25;9.73;;;6.72;;
15536;SDS011;7870;52.448;13.270;2023-04-06T01:19:11;7.63;;;5.82;;
15536;SDS011;7870;52.448;13.270;2023-04-06T01:21:42;10.15;;;6.90;;
15536;SDS011;7870;52.448;13.270;2023-04-06T01:24:27;9.70;;;6.30;;
15536;SDS011;7870;52.448;13.270;2023-04-06T01:27:13;9.35;;;6.20;;
15536;SDS011;7870;52.448;13.270;2023-04-06T01:29:51;10.10;;;6.95;;
15536;SDS011;7870;52.448;13.270;2023-04-06T01:32:31;11.85;;;7.05;;
15536;SDS011;7870;52.448;13.270;2023-04-06T01:34:58;10.77;;;7.78;;
15536;SDS011;7870;52.448;13.270;2023-04-06T01:37:26;9.65;;;6.78;;
15536;SDS011;7870;52.448;13.270;2023-04-06T01:39:55;10.48;;;6.40;;
15536;SDS011;7870;52.448;13.270;2023-04-06T01:42:35;8.60;;;6.32;;
15536;SDS011;7870;52.448;13.270;2023-04-06T01:45:02;8.02;;;5.70;;
15536;SDS011;7870;52.448;13.270;2023-04-06T01:47:29;8.73;;;7.03;;
15536;SDS011;7870;52.448;13.270;2023-04-06T01:49:57;8.50;;;6.45;;
15536;SDS011;7870;52.448;13.270;2023-04-06T01:52:24;10.57;;;6.57;;
15536;SDS011;7870;52.448;13.270;2023-04-06T01:54:52;10.25;;;7.28;;
15536;SDS011;7870;52.448;13.270;2023-04-06T01:57:39;10.30;;;6.85;;
15536;SDS011;7870;52.448;13.270;2023-04-06T02:00:13;9.48;;;7.10;;
15536;SDS011;7870;52.448;13.270;2023-04-06T02:02:46;10.05;;;7.05;;
15536;SDS011;7870;52.448;13.270;2023-04-06T02:05:19;9.60;;;7.15;;
15536;SDS011;7870;52.448;13.270;2023-04-06T02:07:46;9.27;;;7.45;;
15536;SDS011;7870;52.448;13.270;2023-04-06T02:10:17;10.80;;;7.43;;
15536;SDS011;7870;52.448;13.270;2023-04-06T02:12:44;10.82;;;6.32;;
15536;SDS011;7870;52.448;13.270;2023-04-06T02:15:16;10.35;;;7.50;;
15536;SDS011;7870;52.448;13.270;2023-04-06T02:17:43;9.43;;;7.05;;
15536;SDS011;7870;52.448;13.270;2023-04-06T02:20:09;9.25;;;6.82;;
15536;SDS011;7870;52.448;13.270;2023-04-06T02:22:36;10.95;;;7.63;;
15536;SDS011;7870;52.448;13.270;2023-04-06T02:25:02;9.68;;;7.88;;
15536;SDS011;7870;52.448;13.270;2023-04-06T02:27:29;10.25;;;7.50;;
15536;SDS011;7870;52.448;13.270;2023-04-06T02:29:57;10.48;;;7.35;;
15536;SDS011;7870;52.448;13.270;2023-04-06T02:32:23;13.07;;;8.75;;
15536;SDS011;7870;52.448;13.270;2023-04-06T02:34:51;11.93;;;7.95;;
15536;SDS011;7870;52.448;13.270;2023-04-06T02:37:19;11.38;;;9.02;;
15536;SDS011;7870;52.448;13.270;2023-04-06T02:39:46;11.70;;;8.07;;
15536;SDS011;7870;52.448;13.270;2023-04-06T02:42:13;9.73;;;8.07;;
15536;SDS011;7870;52.448;13.270;2023-04-06T02:44:42;10.10;;;7.80;;
15536;SDS011;7870;52.448;13.270;2023-04-06T02:47:10;11.85;;;9.43;;
15536;SDS011;7870;52.448;13.270;2023-04-06T02:49:38;11.25;;;7.90;;
15536;SDS011;7870;52.448;13.270;2023-04-06T02:52:04;11.30;;;8.35;;
15536;SDS011;7870;52.448;13.270;2023-04-06T02:54:34;10.63;;;7.72;;
15536;SDS011;7870;52.448;13.270;2023-04-06T02:57:02;9.38;;;8.27;;
15536;SDS011;7870;52.448;13.270;2023-04-06T02:59:35;12.52;;;8.32;;
15536;SDS011;7870;52.448;13.270;2023-04-06T03:02:11;14.13;;;8.48;;
15536;SDS011;7870;52.448;13.270;2023-04-06T03:04:38;12.13;;;7.70;;
15536;SDS011;7870;52.448;13.270;2023-04-06T03:07:14;9.85;;;7.18;;
15536;SDS011;7870;52.448;13.270;2023-04-06T03:09:41;10.07;;;8.13;;
15536;SDS011;7870;52.448;13.270;2023-04-06T03:12:08;11.95;;;8.07;;
15536;SDS011;7870;52.448;13.270;2023-04-06T03:14:53;9.23;;;7.25;;
15536;SDS011;7870;52.448;13.270;2023-04-06T03:17:19;14.68;;;8.93;;
15536;SDS011;7870;52.448;13.270;2023-04-06T03:19:46;10.63;;;7.88;;
15536;SDS011;7870;52.448;13.270;2023-04-06T03:22:13;10.75;;;7.35;;
15536;SDS011;7870;52.448;13.270;2023-04-06T03:24:40;12.63;;;8.43;;
15536;SDS011;7870;52.448;13.270;2023-04-06T03:27:07;10.57;;;8.32;;
15536;SDS011;7870;52.448;13.270;2023-04-06T03:29:34;11.25;;;8.55;;
15536;SDS011;7870;52.448;13.270;2023-04-06T03:32:02;10.25;;;7.70;;
15536;SDS011;7870;52.448;13.270;2023-04-06T03:34:33;8.93;;;7.85;;
15536;SDS011;7870;52.448;13.270;2023-04-06T03:37:00;11.38;;;8.80;;
15536;SDS011;7870;52.448;13.270;2023-04-06T03:39:40;10.52;;;8.15;;
15536;SDS011;7870;52.448;13.270;2023-04-06T03:42:08;12.20;;;8.52;;
15536;SDS011;7870;52.448;13.270;2023-04-06T03:44:40;12.13;;;7.75;;
15536;SDS011;7870;52.448;13.270;2023-04-06T03:47:07;10.18;;;7.65;;
15536;SDS011;7870;52.448;13.270;2023-04-06T03:49:33;8.80;;;7.88;;
15536;SDS011;7870;52.448;13.270;2023-04-06T03:52:00;12.57;;;8.32;;
15536;SDS011;7870;52.448;13.270;2023-04-06T03:54:28;10.07;;;7.22;;
15536;SDS011;7870;52.448;13.270;2023-04-06T03:56:54;12.02;;;8.05;;
15536;SDS011;7870;52.448;13.270;2023-04-06T03:59:23;9.73;;;7.43;;
15536;SDS011;7870;52.448;13.270;2023-04-06T04:01:51;9.25;;;7.30;;
15536;SDS011;7870;52.448;13.270;2023-04-06T04:04:18;12.50;;;7.85;;
15536;SDS011;7870;52.448;13.270;2023-04-06T04:06:45;12.32;;;8.15;;
15536;SDS011;7870;52.448;13.270;2023-04-06T04:09:11;11.32;;;8.10;;
15536;SDS011;7870;52.448;13.270;2023-04-06T04:11:38;12.18;;;8.45;;
15536;SDS011;7870;52.448;13.270;2023-04-06T04:14:05;14.00;;;8.82;;
15536;SDS011;7870;52.448;13.270;2023-04-06T04:16:31;11.05;;;7.50;;
15536;SDS011;7870;52.448;13.270;2023-04-06T04:18:58;10.82;;;7.82;;
15536;SDS011;7870;52.448;13.270;2023-04-06T04:21:25;11.70;;;8.65;;
15536;SDS011;7870;52.448;13.270;2023-04-06T04:23:52;11.63;;;8.60;;
15536;SDS011;7870;52.448;13.270;2023-04-06T04:26:18;11.93;;;8.20;;
15536;SDS011;7870;52.448;13.270;2023-04-06T04:28:46;10.55;;;6.60;;
15536;SDS011;7870;52.448;13.270;2023-04-06T04:31:13;10.80;;;8.93;;
15536;SDS011;7870;52.448;13.270;2023-04-06T04:33:40;13.38;;;8.57;;
15536;SDS011;7870;52.448;13.270;2023-04-06T04:36:12;11.55;;;7.78;;
15536;SDS011;7870;52.448;13.270;2023-04-06T04:38:41;11.55;;;7.82;;
15536;SDS011;7870;52.448;13.270;2023-04-06T04:41:09;14.23;;;8.00;;
15536;SDS011;7870;52.448;13.270;2023-04-06T04:43:38;11.60;;;7.47;;
15536;SDS011;7870;52.448;13.270;2023-04-06T04:46:05;9.18;;;7.93;;
15536;SDS011;7870;52.448;13.270;2023-04-06T04:48:40;12.15;;;8.60;;
15536;SDS011;7870;52.448;13.270;2023-04-06T04:51:07;9.63;;;8.13;;
15536;SDS011;7870;52.448;13.270;2023-04-06T04:53:55;13.35;;;8.52;;
15536;SDS011;7870;52.448;13.270;2023-04-06T04:56:26;11.88;;;8.10;;
15536;SDS011;7870;52.448;13.270;2023-04-06T04:59:01;10.73;;;8.18;;
15536;SDS011;7870;52.448;13.270;2023-04-06T05:01:30;10.45;;;8.57;;
15536;SDS011;7870;52.448;13.270;2023-04-06T05:04:09;11.52;;;7.93;;
15536;SDS011;7870;52.448;13.270;2023-04-06T05:06:36;11.75;;;8.63;;
15536;SDS011;7870;52.448;13.270;2023-04-06T05:09:02;11.38;;;8.52;;
15536;SDS011;7870;52.448;13.270;2023-04-06T05:11:30;10.23;;;8.45;;
15536;SDS011;7870;52.448;13.270;2023-04-06T05:13:59;11.50;;;8.00;;
15536;SDS011;7870;52.448;13.270;2023-04-06T05:16:27;14.38;;;9.48;;
15536;SDS011;7870;52.448;13.270;2023-04-06T05:18:54;14.82;;;9.25;;
15536;SDS011;7870;52.448;13.270;2023-04-06T05:21:25;14.02;;;8.00;;
15536;SDS011;7870;52.448;13.270;2023-04-06T05:23:56;13.30;;;8.52;;
15536;SDS011;7870;52.448;13.270;2023-04-06T05:26:23;10.55;;;8.00;;
15536;SDS011;7870;52.448;13.270;2023-04-06T05:28:53;9.38;;;8.38;;
15536;SDS011;7870;52.448;13.270;2023-04-06T05:31:22;13.07;;;8.07;;
15536;SDS011;7870;52.448;13.270;2023-04-06T05:33:49;9.55;;;7.50;;
15536;SDS011;7870;52.448;13.270;2023-04-06T05:36:26;11.60;;;8.23;;
15536;SDS011;7870;52.448;13.270;2023-04-06T05:38:52;13.45;;;9.23;;
15536;SDS011;7870;52.448;13.270;2023-04-06T05:41:32;14.05;;;9.40;;
15536;SDS011;7870;52.448;13.270;2023-04-06T05:43:59;11.23;;;9.48;;
15536;SDS011;7870;52.448;13.270;2023-04-06T05:46:26;12.93;;;9.73;;
15536;SDS011;7870;52.448;13.270;2023-04-06T05:48:55;13.05;;;10.48;;
15536;SDS011;7870;52.448;13.270;2023-04-06T05:51:25;12.00;;;9.32;;
15536;SDS011;7870;52.448;13.270;2023-04-06T05:53:53;11.15;;;9.10;;
15536;SDS011;7870;52.448;13.270;2023-04-06T05:56:21;12.32;;;10.18;;
15536;SDS011;7870;52.448;13.270;2023-04-06T05:58:47;13.73;;;11.02;;
15536;SDS011;7870;52.448;13.270;2023-04-06T06:01:20;12.93;;;11.23;;
15536;SDS011;7870;52.448;13.270;2023-04-06T06:03:46;12.75;;;10.25;;
15536;SDS011;7870;52.448;13.270;2023-04-06T06:06:14;13.60;;;9.82;;
15536;SDS011;7870;52.448;13.270;2023-04-06T06:09:07;15.70;;;9.45;;
15536;SDS011;7870;52.448;13.270;2023-04-06T06:11:40;12.98;;;9.30;;
15536;SDS011;7870;52.448;13.270;2023-04-06T06:14:08;11.50;;;9.27;;
15536;SDS011;7870;52.448;13.270;2023-04-06T06:16:37;12.88;;;10.32;;
15536;SDS011;7870;52.448;13.270;2023-04-06T06:19:06;11.93;;;9.20;;
15536;SDS011;7870;52.448;13.270;2023-04-06T06:21:33;12.00;;;9.77;;
15536;SDS011;7870;52.448;13.270;2023-04-06T06:24:01;14.00;;;9.75;;
15536;SDS011;7870;52.448;13.270;2023-04-06T06:26:28;12.63;;;9.35;;
15536;SDS011;7870;52.448;13.270;2023-04-06T06:28:55;12.18;;;8.02;;
15536;SDS011;7870;52.448;13.270;2023-04-06T06:31:22;11.93;;;8.60;;
15536;SDS011;7870;52.448;13.270;2023-04-06T06:33:49;10.15;;;7.82;;
15536;SDS011;7870;52.448;13.270;2023-04-06T06:36:18;9.60;;;7.28;;
15536;SDS011;7870;52.448;13.270;2023-04-06T06:38:54;13.18;;;6.95;;
15536;SDS011;7870;52.448;13.270;2023-04-06T06:41:23;9.20;;;5.82;;
15536;SDS011;7870;52.448;13.270;2023-04-06T06:43:50;10.75;;;6.47;;
15536;SDS011;7870;52.448;13.270;2023-04-06T06:46:18;8.32;;;5.90;;
15536;SDS011;7870;52.448;13.270;2023-04-06T06:48:44;10.05;;;6.82;;
15536;SDS011;7870;52.448;13.270;2023-04-06T06:51:11;8.77;;;6.20;;
15536;SDS011;7870;52.448;13.270;2023-04-06T06:53:39;9.50;;;6.45;;
15536;SDS011;7870;52.448;13.270;2023-04-06T06:56:07;7.60;;;5.78;;
15536;SDS011;7870;52.448;13.270;2023-04-06T06:58:34;8.05;;;5.57;;
15536;SDS011;7870;52.448;13.270;2023-04-06T07:01:00;8.07;;;5.88;;
15536;SDS011;7870;52.448;13.270;2023-04-06T07:03:29;6.47;;;5.55;;
15536;SDS011;7870;52.448;13.270;2023-04-06T07:05:56;10.40;;;5.72;;
15536;SDS011;7870;52.448;13.270;2023-04-06T07:08:24;9.20;;;5.30;;
15536;SDS011;7870;52.448;13.270;2023-04-06T07:10:51;7.95;;;5.35;;
15536;SDS011;7870;52.448;13.270;2023-04-06T07:13:24;9.30;;;6.00;;
15536;SDS011;7870;52.448;13.270;2023-04-06T07:15:54;7.63;;;5.43;;
15536;SDS011;7870;52.448;13.270;2023-04-06T07:18:21;10.02;;;5.68;;
15536;SDS011;7870;52.448;13.270;2023-04-06T07:20:50;6.82;;;5.55;;
15536;SDS011;7870;52.448;13.270;2023-04-06T07:23:17;6.53;;;4.88;;
15536;SDS011;7870;52.448;13.270;2023-04-06T07:25:44;8.35;;;4.57;;
15536;SDS011;7870;52.448;13.270;2023-04-06T07:30:41;7.55;;;4.88;;
15536;SDS011;7870;52.448;13.270;2023-04-06T07:33:10;6.13;;;4.72;;
15536;SDS011;7870;52.448;13.270;2023-04-06T07:35:38;8.45;;;4.50;;
15536;SDS011;7870;52.448;13.270;2023-04-06T07:38:06;8.00;;;4.90;;
15536;SDS011;7870;52.448;13.270;2023-04-06T07:40:34;7.82;;;4.65;;
15536;SDS011;7870;52.448;13.270;2023-04-06T07:43:01;6.85;;;4.53;;
15536;SDS011;7870;52.448;13.270;2023-04-06T07:45:28;8.35;;;4.45;;
15536;SDS011;7870;52.448;13.270;2023-04-06T07:47:55;6.75;;;4.38;;
15536;SDS011;7870;52.448;13.270;2023-04-06T07:50:24;6.85;;;4.28;;
15536;SDS011;7870;52.448;13.270;2023-04-06T07:52:52;7.00;;;4.18;;
15536;SDS011;7870;52.448;13.270;2023-04-06T07:55:18;6.00;;;3.83;;
15536;SDS011;7870;52.448;13.270;2023-04-06T07:57:45;7.57;;;4.13;;
15536;SDS011;7870;52.448;13.270;2023-04-06T08:00:12;7.80;;;4.50;;
15536;SDS011;7870;52.448;13.270;2023-04-06T08:02:39;6.88;;;3.80;;
15536;SDS011;7870;52.448;13.270;2023-04-06T08:05:06;6.45;;;4.10;;
15536;SDS011;7870;52.448;13.270;2023-04-06T08:07:33;5.40;;;3.65;;
15536;SDS011;7870;52.448;13.270;2023-04-06T08:10:00;7.55;;;4.57;;
15536;SDS011;7870;52.448;13.270;2023-04-06T08:12:27;8.15;;;3.83;;
15536;SDS011;7870;52.448;13.270;2023-04-06T08:14:54;5.47;;;3.90;;
15536;SDS011;7870;52.448;13.270;2023-04-06T08:17:20;6.85;;;4.00;;
15536;SDS011;7870;52.448;13.270;2023-04-06T08:19:47;6.57;;;4.32;;
15536;SDS011;7870;52.448;13.270;2023-04-06T08:22:13;6.15;;;3.90;;
15536;SDS011;7870;52.448;13.270;2023-04-06T08:24:40;4.82;;;2.95;;
15536;SDS011;7870;52.448;13.270;2023-04-06T08:27:06;6.45;;;3.70;;
15536;SDS011;7870;52.448;13.270;2023-04-06T08:29:33;6.15;;;3.20;;
15536;SDS011;7870;52.448;13.270;2023-04-06T08:32:00;6.55;;;2.90;;
15536;SDS011;7870;52.448;13.270;2023-04-06T08:34:31;6.25;;;3.45;;
15536;SDS011;7870;52.448;13.270;2023-04-06T08:36:59;7.75;;;3.25;;
15536;SDS011;7870;52.448;13.270;2023-04-06T08:39:26;5.70;;;3.65;;
15536;SDS011;7870;52.448;13.270;2023-04-06T08:41:54;4.47;;;2.90;;
15536;SDS011;7870;52.448;13.270;2023-04-06T08:44:26;4.80;;;3.15;;
15536;SDS011;7870;52.448;13.270;2023-04-06T08:46:56;6.97;;;3.00;;
15536;SDS011;7870;52.448;13.270;2023-04-06T08:49:23;8.30;;;3.47;;
15536;SDS011;7870;52.448;13.270;2023-04-06T08:51:51;4.45;;;2.50;;
15536;SDS011;7870;52.448;13.270;2023-04-06T08:54:18;4.78;;;2.58;;
15536;SDS011;7870;52.448;13.270;2023-04-06T08:56:45;5.93;;;3.00;;
15536;SDS011;7870;52.448;13.270;2023-04-06T08:59:12;3.80;;;2.70;;
15536;SDS011;7870;52.448;13.270;2023-04-06T09:01:40;5.55;;;3.25;;
15536;SDS011;7870;52.448;13.270;2023-04-06T09:04:10;5.53;;;3.10;;
15536;SDS011;7870;52.448;13.270;2023-04-06T09:06:39;4.10;;;2.70;;
15536;SDS011;7870;52.448;13.270;2023-04-06T09:09:07;3.22;;;2.15;;
15536;SDS011;7870;52.448;13.270;2023-04-06T09:11:43;4.35;;;2.50;;
15536;SDS011;7870;52.448;13.270;2023-04-06T09:14:35;5.68;;;2.40;;
15536;SDS011;7870;52.448;13.270;2023-04-06T09:17:02;4.40;;;2.33;;
15536;SDS011;7870;52.448;13.270;2023-04-06T09:19:29;5.00;;;2.53;;
15536;SDS011;7870;52.448;13.270;2023-04-06T09:24:52;4.95;;;2.58;;
15536;SDS011;7870;52.448;13.270;2023-04-06T09:27:32;3.92;;;2.50;;
15536;SDS011;7870;52.448;13.270;2023-04-06T09:30:06;4.05;;;1.83;;
15536;SDS011;7870;52.448;13.270;2023-04-06T09:32:53;4.13;;;1.60;;
15536;SDS011;7870;52.448;13.270;2023-04-06T09:35:22;4.63;;;2.38;;
15536;SDS011;7870;52.448;13.270;2023-04-06T09:37:50;5.25;;;2.30;;
15536;SDS011;7870;52.448;13.270;2023-04-06T09:40:18;4.72;;;2.90;;
15536;SDS011;7870;52.448;13.270;2023-04-06T09:42:45;5.30;;;2.58;;
15536;SDS011;7870;52.448;13.270;2023-04-06T09:45:13;4.55;;;2.53;;
15536;SDS011;7870;52.448;13.270;2023-04-06T09:47:41;5.03;;;2.40;;
15536;SDS011;7870;52.448;13.270;2023-04-06T09:50:10;6.28;;;2.22;;
15536;SDS011;7870;52.448;13.270;2023-04-06T09:52:48;4.82;;;2.70;;
15536;SDS011;7870;52.448;13.270;2023-04-06T09:55:23;5.53;;;2.60;;
15536;SDS011;7870;52.448;13.270;2023-04-06T09:57:56;3.72;;;2.33;;
15536;SDS011;7870;52.448;13.270;2023-04-06T10:00:25;5.25;;;3.10;;
15536;SDS011;7870;52.448;13.270;2023-04-06T10:03:00;3.97;;;2.83;;
15536;SDS011;7870;52.448;13.270;2023-04-06T10:08:21;4.28;;;2.63;;
15536;SDS011;7870;52.448;13.270;2023-04-06T10:10:51;5.53;;;2.40;;
15536;SDS011;7870;52.448;13.270;2023-04-06T10:13:18;4.70;;;2.28;;
15536;SDS011;7870;52.448;13.270;2023-04-06T10:15:45;4.15;;;2.08;;
15536;SDS011;7870;52.448;13.270;2023-04-06T10:18:11;3.90;;;2.35;;
15536;SDS011;7870;52.448;13.270;2023-04-06T10:23:34;3.80;;;2.30;;
15536;SDS011;7870;52.448;13.270;2023-04-06T10:26:21;4.63;;;2.10;;
15536;SDS011;7870;52.448;13.270;2023-04-06T10:28:48;5.90;;;2.72;;
15536;SDS011;7870;52.448;13.270;2023-04-06T10:31:15;4.85;;;2.17;;
15536;SDS011;7870;52.448;13.270;2023-04-06T10:33:41;5.68;;;2.50;;
15536;SDS011;7870;52.448;13.270;2023-04-06T10:38:38;3.93;;;2.60;;
15536;SDS011;7870;52.448;13.270;2023-04-06T10:41:09;4.47;;;2.70;;
15536;SDS011;7870;52.448;13.270;2023-04-06T10:43:40;3.75;;;2.35;;
15536;SDS011;7870;52.448;13.270;2023-04-06T10:48:38;4.53;;;2.55;;
15536;SDS011;7870;52.448;13.270;2023-04-06T10:51:10;5.45;;;2.53;;
15536;SDS011;7870;52.448;13.270;2023-04-06T10:53:38;5.20;;;2.33;;
15536;SDS011;7870;52.448;13.270;2023-04-06T10:56:09;3.75;;;2.33;;
15536;SDS011;7870;52.448;13.270;2023-04-06T10:58:49;5.22;;;2.20;;
15536;SDS011;7870;52.448;13.270;2023-04-06T11:01:18;4.20;;;2.10;;
15536;SDS011;7870;52.448;13.270;2023-04-06T11:03:50;3.50;;;1.98;;
15536;SDS011;7870;52.448;13.270;2023-04-06T11:06:21;3.67;;;2.50;;
15536;SDS011;7870;52.448;13.270;2023-04-06T11:08:49;4.15;;;2.50;;
15536;SDS011;7870;52.448;13.270;2023-04-06T11:11:18;5.35;;;2.30;;
15536;SDS011;7870;52.448;13.270;2023-04-06T11:13:53;3.67;;;2.53;;
15536;SDS011;7870;52.448;13.270;2023-04-06T11:16:25;4.90;;;2.28;;
15536;SDS011;7870;52.448;13.270;2023-04-06T11:18:59;4.10;;;2.65;;
15536;SDS011;7870;52.448;13.270;2023-04-06T11:24:09;5.38;;;2.60;;
15536;SDS011;7870;52.448;13.270;2023-04-06T11:26:44;4.28;;;2.58;;
15536;SDS011;7870;52.448;13.270;2023-04-06T11:29:25;4.65;;;2.15;;
15536;SDS011;7870;52.448;13.270;2023-04-06T11:31:54;3.10;;;2.20;;
15536;SDS011;7870;52.448;13.270;2023-04-06T11:34:24;3.60;;;2.47;;
15536;SDS011;7870;52.448;13.270;2023-04-06T11:36:55;4.75;;;2.85;;
15536;SDS011;7870;52.448;13.270;2023-04-06T11:39:25;6.50;;;3.30;;
15536;SDS011;7870;52.448;13.270;2023-04-06T11:41:54;3.50;;;2.70;;
15536;SDS011;7870;52.448;13.270;2023-04-06T11:44:33;4.80;;;3.03;;
15536;SDS011;7870;52.448;13.270;2023-04-06T11:47:07;4.63;;;2.40;;
15536;SDS011;7870;52.448;13.270;2023-04-06T11:49:36;3.75;;;2.30;;
15536;SDS011;7870;52.448;13.270;2023-04-06T11:52:13;3.50;;;2.45;;
15536;SDS011;7870;52.448;13.270;2023-04-06T11:54:41;3.67;;;2.30;;
15536;SDS011;7870;52.448;13.270;2023-04-06T11:57:07;5.53;;;2.58;;
15536;SDS011;7870;52.448;13.270;2023-04-06T11:59:35;3.50;;;2.60;;
15536;SDS011;7870;52.448;13.270;2023-04-06T12:02:02;5.45;;;2.72;;
15536;SDS011;7870;52.448;13.270;2023-04-06T12:04:29;4.15;;;2.50;;
15536;SDS011;7870;52.448;13.270;2023-04-06T12:06:57;3.63;;;2.58;;
15536;SDS011;7870;52.448;13.270;2023-04-06T12:09:23;3.67;;;2.30;;
15536;SDS011;7870;52.448;13.270;2023-04-06T12:11:50;3.72;;;2.45;;
15536;SDS011;7870;52.448;13.270;2023-04-06T12:14:17;3.17;;;2.30;;
15536;SDS011;7870;52.448;13.270;2023-04-06T12:16:43;5.47;;;2.65;;
15536;SDS011;7870;52.448;13.270;2023-04-06T12:19:10;3.63;;;2.65;;
15536;SDS011;7870;52.448;13.270;2023-04-06T12:21:36;3.90;;;2.50;;
15536;SDS011;7870;52.448;13.270;2023-04-06T12:24:03;4.22;;;2.50;;
15536;SDS011;7870;52.448;13.270;2023-04-06T12:26:31;4.30;;;2.65;;
15536;SDS011;7870;52.448;13.270;2023-04-06T12:29:01;3.97;;;2.50;;
15536;SDS011;7870;52.448;13.270;2023-04-06T12:31:34;7.35;;;3.05;;
15536;SDS011;7870;52.448;13.270;2023-04-06T12:34:01;3.70;;;2.50;;
15536;SDS011;7870;52.448;13.270;2023-04-06T12:36:32;5.00;;;2.80;;
15536;SDS011;7870;52.448;13.270;2023-04-06T12:39:00;5.75;;;3.15;;
15536;SDS011;7870;52.448;13.270;2023-04-06T12:41:30;5.80;;;2.75;;
15536;SDS011;7870;52.448;13.270;2023-04-06T12:43:57;3.65;;;2.63;;
15536;SDS011;7870;52.448;13.270;2023-04-06T12:46:25;5.15;;;2.33;;
15536;SDS011;7870;52.448;13.270;2023-04-06T12:48:52;4.72;;;2.60;;
15536;SDS011;7870;52.448;13.270;2023-04-06T12:51:22;3.90;;;2.40;;
15536;SDS011;7870;52.448;13.270;2023-04-06T12:53:49;4.13;;;2.45;;
15536;SDS011;7870;52.448;13.270;2023-04-06T12:56:16;3.40;;;2.30;;
15536;SDS011;7870;52.448;13.270;2023-04-06T12:58:44;3.40;;;2.30;;
15536;SDS011;7870;52.448;13.270;2023-04-06T13:01:11;3.53;;;2.45;;
15536;SDS011;7870;52.448;13.270;2023-04-06T13:03:42;4.45;;;2.53;;
15536;SDS011;7870;52.448;13.270;2023-04-06T13:06:09;4.57;;;2.70;;
15536;SDS011;7870;52.448;13.270;2023-04-06T13:08:36;3.85;;;2.40;;
15536;SDS011;7870;52.448;13.270;2023-04-06T13:11:04;3.60;;;2.15;;
15536;SDS011;7870;52.448;13.270;2023-04-06T13:13:31;4.70;;;2.63;;
15536;SDS011;7870;52.448;13.270;2023-04-06T13:16:01;3.88;;;2.45;;
15536;SDS011;7870;52.448;13.270;2023-04-06T13:18:30;4.28;;;2.28;;
15536;SDS011;7870;52.448;13.270;2023-04-06T13:20:57;3.42;;;2.17;;
15536;SDS011;7870;52.448;13.270;2023-04-06T13:23:26;3.90;;;2.10;;
15536;SDS011;7870;52.448;13.270;2023-04-06T13:25:59;4.45;;;2.60;;
15536;SDS011;7870;52.448;13.270;2023-04-06T13:28:30;3.30;;;2.53;;
15536;SDS011;7870;52.448;13.270;2023-04-06T13:30:58;4.18;;;2.50;;
15536;SDS011;7870;52.448;13.270;2023-04-06T13:33:25;3.92;;;2.13;;
15536;SDS011;7870;52.448;13.270;2023-04-06T13:35:52;4.30;;;2.17;;
15536;SDS011;7870;52.448;13.270;2023-04-06T13:38:18;3.53;;;2.22;;
15536;SDS011;7870;52.448;13.270;2023-04-06T13:40:45;3.53;;;2.17;;
15536;SDS011;7870;52.448;13.270;2023-04-06T13:43:12;3.83;;;1.90;;
15536;SDS011;7870;52.448;13.270;2023-04-06T13:45:38;4.18;;;2.20;;
15536;SDS011;7870;52.448;13.270;2023-04-06T13:48:05;4.78;;;2.10;;
15536;SDS011;7870;52.448;13.270;2023-04-06T13:50:32;4.45;;;2.30;;
15536;SDS011;7870;52.448;13.270;2023-04-06T13:52:59;4.28;;;2.63;;
15536;SDS011;7870;52.448;13.270;2023-04-06T13:55:25;3.92;;;2.15;;
15536;SDS011;7870;52.448;13.270;2023-04-06T13:57:52;4.20;;;2.25;;
15536;SDS011;7870;52.448;13.270;2023-04-06T14:00:18;4.78;;;2.70;;
15536;SDS011;7870;52.448;13.270;2023-04-06T14:02:45;4.05;;;2.40;;
15536;SDS011;7870;52.448;13.270;2023-04-06T14:05:12;4.80;;;2.20;;
15536;SDS011;7870;52.448;13.270;2023-04-06T14:07:38;5.20;;;2.75;;
15536;SDS011;7870;52.448;13.270;2023-04-06T14:10:06;3.80;;;2.47;;
15536;SDS011;7870;52.448;13.270;2023-04-06T14:12:43;3.90;;;2.30;;
15536;SDS011;7870;52.448;13.270;2023-04-06T14:15:11;4.18;;;2.50;;
15536;SDS011;7870;52.448;13.270;2023-04-06T14:17:38;5.22;;;2.88;;
15536;SDS011;7870;52.448;13.270;2023-04-06T14:20:05;4.22;;;2.25;;
15536;SDS011;7870;52.448;13.270;2023-04-06T14:22:32;2.95;;;1.80;;
15536;SDS011;7870;52.448;13.270;2023-04-06T14:24:59;4.07;;;2.20;;
15536;SDS011;7870;52.448;13.270;2023-04-06T14:27:25;4.03;;;2.70;;
15536;SDS011;7870;52.448;13.270;2023-04-06T14:29:52;3.10;;;2.42;;
15536;SDS011;7870;52.448;13.270;2023-04-06T14:32:20;3.70;;;2.40;;
15536;SDS011;7870;52.448;13.270;2023-04-06T14:34:47;4.50;;;2.20;;
15536;SDS011;7870;52.448;13.270;2023-04-06T14:37:13;3.78;;;2.70;;
15536;SDS011;7870;52.448;13.270;2023-04-06T14:39:40;3.35;;;2.00;;
15536;SDS011;7870;52.448;13.270;2023-04-06T14:42:07;4.47;;;2.45;;
15536;SDS011;7870;52.448;13.270;2023-04-06T14:44:34;4.97;;;2.67;;
15536;SDS011;7870;52.448;13.270;2023-04-06T14:47:02;3.80;;;2.15;;
15536;SDS011;7870;52.448;13.270;2023-04-06T14:49:32;6.88;;;3.72;;
15536;SDS011;7870;52.448;13.270;2023-04-06T14:51:59;6.07;;;2.72;;
15536;SDS011;7870;52.448;13.270;2023-04-06T14:54:25;4.57;;;2.60;;
15536;SDS011;7870;52.448;13.270;2023-04-06T14:56:52;3.63;;;2.50;;
15536;SDS011;7870;52.448;13.270;2023-04-06T14:59:18;4.20;;;2.72;;
15536;SDS011;7870;52.448;13.270;2023-04-06T15:01:45;5.28;;;2.50;;
15536;SDS011;7870;52.448;13.270;2023-04-06T15:04:12;4.32;;;2.70;;
15536;SDS011;7870;52.448;13.270;2023-04-06T15:06:38;4.78;;;2.90;;
15536;SDS011;7870;52.448;13.270;2023-04-06T15:09:05;4.05;;;3.05;;
15536;SDS011;7870;52.448;13.270;2023-04-06T15:11:32;3.92;;;3.00;;
15536;SDS011;7870;52.448;13.270;2023-04-06T15:13:59;5.45;;;3.13;;